Historique des mesures à Cassis (13260), France
Quotidien Résumé Juin 22, 2018 Unités:  Métrique    US   Métrique/US
« Précédent (Jour)
Suivant (Jour) »
Quotidien Hebdomadaire Mensuel Annuel Période au choix
  Maximum: Minimum: Moyenne:
Température: TemperatureC °C 22.1 °C 23.8 °C
Point de rosée: DewpointC °C 10.8 °C 13.1 °C
Humidité: Humidity % 39 % 49 %
Vitesse du vent: 0 km/h 0 km/h 19.6 km/h
Rafales: 0 km/h - -
Vent:- - WSW
Pression: PressurehPa hPa 1007.1 hPa -
Précipitations: 0.0 mm    
Historical Graphs
 
 
Mesures pour : Juin 22, 2018
Heure Temperature Point de rosée Pression Vent Vitesse du vent Rafales Humidité Pluie (par heure) Conditions
TemperatureC °C DewpointC °C PressurehPa hPa Calm     Humidity % HourlyPrecipMM mm SoftwareType W/m2
00:10 24.1 °C 16.6 °C 1010.1 hPa WNW 4.2 km/h 4.2 km/h 63 % 0.0 mm open2300-1.11 W/m2
01:10 23.8 °C 17.1 °C 1010.1 hPa Calm     66 % 0.0 mm open2300-1.11 W/m2
02:10 23.2 °C 17.0 °C 1009.5 hPa Calm   5.6 km/h 68 % 0.0 mm open2300-1.11 W/m2
03:10 23.5 °C 17.3 °C 1008.7 hPa Calm   5.6 km/h 68 % 0.0 mm open2300-1.11 W/m2
04:10 24.5 °C 16.2 °C 1008.1 hPa WNW 6.4 km/h 22 km/h 60 % 0.0 mm open2300-1.11 W/m2
05:10 23.9 °C 15.4 °C 1008.0 hPa NW 35.4 km/h 35.4 km/h 59 % 0.0 mm open2300-1.11 W/m2
06:10 22.9 °C 14.7 °C 1007.8 hPa West 33.6 km/h 33.6 km/h 60 % 0.0 mm open2300-1.11 W/m2
07:10 22.2 °C 14.1 °C 1007.7 hPa NW 19.2 km/h 33.2 km/h 60 % 0.0 mm open2300-1.11 W/m2
08:10 22.3 °C 13.3 °C 1008.0 hPa NW 22.5 km/h 30.7 km/h 57 % 0.0 mm open2300-1.11 W/m2
09:10 22.1 °C 12.9 °C 1008.0 hPa North 15 km/h 44.6 km/h 56 % 0.0 mm open2300-1.11 W/m2
10:10 23.6 °C 12.9 °C 1008.2 hPa WNW 43.5 km/h 50.5 km/h 51 % 0.0 mm open2300-1.11 W/m2
11:10 23.9 °C 12.2 °C 1008.3 hPa NNW 19.2 km/h 29.5 km/h 48 % 0.0 mm open2300-1.11 W/m2
12:10 25.1 °C 12.6 °C 1007.9 hPa WNW 57.9 km/h 57.9 km/h 46 % 0.0 mm open2300-1.11 W/m2
13:10 25.4 °C 12.2 °C 1007.9 hPa NNW 31.9 km/h 31.9 km/h 44 % 0.0 mm open2300-1.11 W/m2
14:10 25.9 °C 12.3 °C 1007.8 hPa WNW 27.2 km/h 39.9 km/h 43 % 0.0 mm open2300-1.11 W/m2
15:10 26.6 °C 12.6 °C 1007.3 hPa NNW 20.9 km/h 41.2 km/h 42 % 0.0 mm open2300-1.11 W/m2
16:10 27.8 °C 13.3 °C 1007.1 hPa North 23 km/h 74 km/h 41 % 0.0 mm open2300-1.11 W/m2
17:10 28.4 °C 13.6 °C 1007.4 hPa NW 41.7 km/h 41.7 km/h 40 % 0.0 mm open2300-1.11 W/m2
18:10 28.2 °C 12.9 °C 1007.6 hPa WNW 20.9 km/h 47.3 km/h 39 % 0.0 mm open2300-1.11 W/m2
19:10 27.9 °C 13.1 °C 1007.9 hPa West 27.2 km/h 37 km/h 40 % 0.0 mm open2300-1.11 W/m2
20:10 26.8 °C 12.1 °C 1008.2 hPa North 9.3 km/h 29 km/h 40 % 0.0 mm open2300-1.11 W/m2
21:10 25.6 °C 11.4 °C 1008.3 hPa NW 12.2 km/h 20.9 km/h 41 % 0.0 mm open2300-1.11 W/m2
22:10 24.6 °C 11.2 °C 1009.1 hPa NW 10.3 km/h 10.3 km/h 43 % 0.0 mm open2300-1.11 W/m2
23:10 23.9 °C 10.8 °C 1009.7 hPa North 8.9 km/h 12.7 km/h 44 % 0.0 mm open2300-1.11 W/m2
Observations météo à CASSIS
WU-History script by Weather Underground - 1 mb